Forrest City, AR (72335)

1:21 AM CST on December 06, 2016 (GMT -0600)
marianna | | Change Station

Elev 210 ft 34.77 °N, 90.77 °W | Updated 9 seconds ago

Light Rain
Light Rain Mist
45.0 °F
Feels Like 45 °F
N
3.0
Wind Variable Wind from NE

Today
High -- | Low -- °F
--% Chance of Precip.
Yesterday
High -- | Low -- °F
Precip. -- in
Pressure 29.66 in
Visibility 2.0 miles
Clouds Overcast 400 ft
Windchill 45 °F
Dew Point 44 °F
Humidity 98%
Rainfall 0.05 in
Snow Depth Not available.
6:57 AM 4:51 PM
Waxing Crescent, 39% visible
SPECI KAWM 060704Z AUTO 03004KT 2SM -RA BR OVC004 07/07 A2966 RMK AO2 P0000 T00720072
Pressure 29.66 in
Visibility 2.0 miles
Clouds Overcast 400 ft
Windchill 45 °F
Dew Point 44 °F
Humidity 98%
Rainfall 0.05 in
Snow Depth Not available.
6:57 AM 4:51 PM
Waxing Crescent, 39% visible
SPECI KAWM 060704Z AUTO 03004KT 2SM -RA BR OVC004 07/07 A2966 RMK AO2 P0000 T00720072

10-Day Weather Forecast

Almanac

Astronomy

Dec. 06, 2016 Rise Set
Actual Time
Civil Twilight
Nautical Twilight
Astronomical Twilight
Moon
Length of Visible Light
Length of Day
Tomorrow will be .
, % of the Moon is Illuminated

Today's Extremes

State Highs State Lows

Community

WunderPhotos

Upload Photos

1,955,930 photos uploaded!

WunderBlog® & News

Nearby

Air Quality

  Air Quality AQ Index Pollutant
Not available.

Snow Depth

Station Depth Elevation

Earthquake Activity

City Distance Mag. Time & Date
Minimum magnitude displayed is 2.5.

Coastal Water Temperatures

Place Temperature

Stations

Nearby Weather Stations

Station Location Temp. Windchill Dew Point Humidity Wind Precip. Elev Updated Type
                   

Watches & Warnings

There are currently no watches in effect.